Terminal Aerodrome Forecast
Issued by NWS

Home | Current Version | Previous Version | Graphics & Text | Print | Product List | Glossary On
Versions: 1 2 3 4 5 6 7 8 9 10 11 12 13
000
FTUS42 KMHX 231727
TAFOAJ
TAF
KOAJ 231727Z 2318/2418 30006KT P6SM FEW050 SCT250
     FM240300 31004KT P6SM SKC
     FM241400 34010G15KT P6SM SKC
      AMD LTD TO CLD VIS AND WIND=

USA.gov is the U.S. government's official web portal to all federal, state and local government web resources and services.